sensor_id;sensor_type;location;lat;lon;timestamp;pressure;altitude;pressure_sealevel;temperature
64175;BMP280;50469;50.438;-119.202;2022-09-20T00:01:38;97138.03;;;20.94
64175;BMP280;50469;50.438;-119.202;2022-09-20T00:04:12;97128.22;;;20.32
64175;BMP280;50469;50.438;-119.202;2022-09-20T00:06:40;97143.31;;;20.48
64175;BMP280;50469;50.438;-119.202;2022-09-20T00:09:08;97146.97;;;20.15
64175;BMP280;50469;50.438;-119.202;2022-09-20T00:11:36;97140.31;;;19.62
64175;BMP280;50469;50.438;-119.202;2022-09-20T00:14:06;97145.28;;;19.40
64175;BMP280;50469;50.438;-119.202;2022-09-20T00:16:39;97160.44;;;19.22
64175;BMP280;50469;50.438;-119.202;2022-09-20T00:19:11;97156.91;;;19.07
64175;BMP280;50469;50.438;-119.202;2022-09-20T00:21:44;97156.47;;;18.99
64175;BMP280;50469;50.438;-119.202;2022-09-20T00:24:12;97153.94;;;18.96
64175;BMP280;50469;50.438;-119.202;2022-09-20T00:26:41;97162.59;;;18.76
64175;BMP280;50469;50.438;-119.202;2022-09-20T00:29:09;97161.69;;;18.79
64175;BMP280;50469;50.438;-119.202;2022-09-20T00:31:37;97164.31;;;18.46
64175;BMP280;50469;50.438;-119.202;2022-09-20T00:34:05;97173.22;;;18.46
64175;BMP280;50469;50.438;-119.202;2022-09-20T00:36:33;97183.66;;;19.23
64175;BMP280;50469;50.438;-119.202;2022-09-20T00:39:05;97181.53;;;18.85
64175;BMP280;50469;50.438;-119.202;2022-09-20T00:41:33;97178.66;;;19.22
64175;BMP280;50469;50.438;-119.202;2022-09-20T00:44:40;97175.28;;;19.12
64175;BMP280;50469;50.438;-119.202;2022-09-20T00:50:26;97186.97;;;19.18
64175;BMP280;50469;50.438;-119.202;2022-09-20T00:53:08;97181.88;;;18.78
64175;BMP280;50469;50.438;-119.202;2022-09-20T00:55:53;97193.03;;;18.80
64175;BMP280;50469;50.438;-119.202;2022-09-20T00:58:26;97196.22;;;19.21
64175;BMP280;50469;50.438;-119.202;2022-09-20T01:00:57;97199.28;;;19.38
64175;BMP280;50469;50.438;-119.202;2022-09-20T01:03:27;97209.66;;;19.06
64175;BMP280;50469;50.438;-119.202;2022-09-20T01:05:58;97211.72;;;18.78
64175;BMP280;50469;50.438;-119.202;2022-09-20T01:08:31;97217.81;;;18.45
64175;BMP280;50469;50.438;-119.202;2022-09-20T01:11:02;97233.31;;;18.26
64175;BMP280;50469;50.438;-119.202;2022-09-20T01:13:30;97234.38;;;18.20
64175;BMP280;50469;50.438;-119.202;2022-09-20T01:15:59;97244.69;;;17.84
64175;BMP280;50469;50.438;-119.202;2022-09-20T01:18:31;97241.50;;;17.68
64175;BMP280;50469;50.438;-119.202;2022-09-20T01:21:00;97243.19;;;17.74
64175;BMP280;50469;50.438;-119.202;2022-09-20T01:29:32;97248.53;;;17.16
64175;BMP280;50469;50.438;-119.202;2022-09-20T01:32:04;97259.34;;;16.94
64175;BMP280;50469;50.438;-119.202;2022-09-20T01:34:44;97267.03;;;16.73
64175;BMP280;50469;50.438;-119.202;2022-09-20T01:37:25;97267.50;;;16.59
64175;BMP280;50469;50.438;-119.202;2022-09-20T01:42:36;97278.50;;;16.42
64175;BMP280;50469;50.438;-119.202;2022-09-20T01:53:34;97295.13;;;16.06
64175;BMP280;50469;50.438;-119.202;2022-09-20T02:11:26;97327.88;;;15.28
64175;BMP280;50469;50.438;-119.202;2022-09-20T02:21:35;97351.13;;;14.47
64175;BMP280;50469;50.438;-119.202;2022-09-20T02:24:37;97356.59;;;14.27
64175;BMP280;50469;50.438;-119.202;2022-09-20T02:27:25;97361.38;;;14.20
64175;BMP280;50469;50.438;-119.202;2022-09-20T02:30:18;97368.16;;;14.08
64175;BMP280;50469;50.438;-119.202;2022-09-20T02:39:01;97370.00;;;13.55
64175;BMP280;50469;50.438;-119.202;2022-09-20T02:41:50;97386.16;;;13.35
64175;BMP280;50469;50.438;-119.202;2022-09-20T02:44:40;97381.19;;;13.33
64175;BMP280;50469;50.438;-119.202;2022-09-20T03:01:19;97418.72;;;12.66
64175;BMP280;50469;50.438;-119.202;2022-09-20T03:09:51;97419.41;;;12.47
64175;BMP280;50469;50.438;-119.202;2022-09-20T03:13:05;97416.81;;;12.40
64175;BMP280;50469;50.438;-119.202;2022-09-20T03:27:38;97440.06;;;12.23
64175;BMP280;50469;50.438;-119.202;2022-09-20T03:58:59;97465.22;;;12.32
64175;BMP280;50469;50.438;-119.202;2022-09-20T04:04:39;97470.78;;;12.18
64175;BMP280;50469;50.438;-119.202;2022-09-20T04:13:41;97482.19;;;11.57
64175;BMP280;50469;50.438;-119.202;2022-09-20T04:22:04;97500.59;;;10.99
64175;BMP280;50469;50.438;-119.202;2022-09-20T04:24:52;97510.47;;;11.10
64175;BMP280;50469;50.438;-119.202;2022-09-20T04:27:34;97512.38;;;11.13
64175;BMP280;50469;50.438;-119.202;2022-09-20T04:35:42;97528.66;;;10.77
64175;BMP280;50469;50.438;-119.202;2022-09-20T04:38:17;97539.75;;;10.72
64175;BMP280;50469;50.438;-119.202;2022-09-20T04:49:48;97543.69;;;10.38
64175;BMP280;50469;50.438;-119.202;2022-09-20T05:39:05;97587.00;;;8.63
64175;BMP280;50469;50.438;-119.202;2022-09-20T05:44:24;97596.63;;;8.79
64175;BMP280;50469;50.438;-119.202;2022-09-20T05:47:15;97603.53;;;8.83
64175;BMP280;50469;50.438;-119.202;2022-09-20T05:58:44;97596.84;;;8.45
64175;BMP280;50469;50.438;-119.202;2022-09-20T06:01:19;97606.75;;;8.44
64175;BMP280;50469;50.438;-119.202;2022-09-20T06:04:07;97610.13;;;8.34
64175;BMP280;50469;50.438;-119.202;2022-09-20T06:07:05;97619.41;;;8.03
64175;BMP280;50469;50.438;-119.202;2022-09-20T06:15:51;97623.66;;;7.70
64175;BMP280;50469;50.438;-119.202;2022-09-20T06:18:30;97621.91;;;7.89
64175;BMP280;50469;50.438;-119.202;2022-09-20T06:23:48;97629.66;;;8.01
64175;BMP280;50469;50.438;-119.202;2022-09-20T06:26:21;97633.91;;;8.09
64175;BMP280;50469;50.438;-119.202;2022-09-20T06:28:55;97631.91;;;7.95
64175;BMP280;50469;50.438;-119.202;2022-09-20T06:31:27;97645.13;;;7.85
64175;BMP280;50469;50.438;-119.202;2022-09-20T06:34:07;97642.75;;;7.76
64175;BMP280;50469;50.438;-119.202;2022-09-20T06:36:45;97644.38;;;7.47
64175;BMP280;50469;50.438;-119.202;2022-09-20T06:39:39;97653.06;;;7.44
64175;BMP280;50469;50.438;-119.202;2022-09-20T06:42:12;97653.00;;;7.36
64175;BMP280;50469;50.438;-119.202;2022-09-20T06:44:40;97661.41;;;7.39
64175;BMP280;50469;50.438;-119.202;2022-09-20T06:47:12;97665.19;;;7.37
64175;BMP280;50469;50.438;-119.202;2022-09-20T06:49:43;97660.94;;;7.33
64175;BMP280;50469;50.438;-119.202;2022-09-20T06:52:16;97655.13;;;7.24
64175;BMP280;50469;50.438;-119.202;2022-09-20T06:54:45;97668.44;;;7.24
64175;BMP280;50469;50.438;-119.202;2022-09-20T06:57:17;97662.22;;;7.12
64175;BMP280;50469;50.438;-119.202;2022-09-20T06:59:46;97673.66;;;7.16
64175;BMP280;50469;50.438;-119.202;2022-09-20T07:02:14;97675.03;;;7.33
64175;BMP280;50469;50.438;-119.202;2022-09-20T07:04:44;97677.19;;;7.54
64175;BMP280;50469;50.438;-119.202;2022-09-20T07:07:15;97675.72;;;7.61
64175;BMP280;50469;50.438;-119.202;2022-09-20T07:09:44;97681.38;;;7.55
64175;BMP280;50469;50.438;-119.202;2022-09-20T07:12:14;97674.09;;;7.52
64175;BMP280;50469;50.438;-119.202;2022-09-20T07:14:42;97679.75;;;7.47
64175;BMP280;50469;50.438;-119.202;2022-09-20T07:17:10;97683.19;;;7.48
64175;BMP280;50469;50.438;-119.202;2022-09-20T07:19:38;97684.59;;;7.38
64175;BMP280;50469;50.438;-119.202;2022-09-20T07:22:06;97681.22;;;7.11
64175;BMP280;50469;50.438;-119.202;2022-09-20T07:24:37;97680.16;;;6.89
64175;BMP280;50469;50.438;-119.202;2022-09-20T07:27:05;97689.91;;;6.81
64175;BMP280;50469;50.438;-119.202;2022-09-20T07:29:36;97695.09;;;6.70
64175;BMP280;50469;50.438;-119.202;2022-09-20T07:32:04;97694.25;;;6.66
64175;BMP280;50469;50.438;-119.202;2022-09-20T07:34:35;97695.84;;;6.71
64175;BMP280;50469;50.438;-119.202;2022-09-20T07:37:03;97693.44;;;6.62
64175;BMP280;50469;50.438;-119.202;2022-09-20T07:39:34;97689.66;;;6.63
64175;BMP280;50469;50.438;-119.202;2022-09-20T07:42:02;97694.56;;;6.61
64175;BMP280;50469;50.438;-119.202;2022-09-20T07:44:31;97692.63;;;6.58
64175;BMP280;50469;50.438;-119.202;2022-09-20T07:46:59;97694.69;;;6.45
64175;BMP280;50469;50.438;-119.202;2022-09-20T07:49:30;97703.19;;;6.31
64175;BMP280;50469;50.438;-119.202;2022-09-20T07:52:00;97694.09;;;6.32
64175;BMP280;50469;50.438;-119.202;2022-09-20T07:54:32;97702.25;;;6.43
64175;BMP280;50469;50.438;-119.202;2022-09-20T07:57:00;97709.69;;;6.34
64175;BMP280;50469;50.438;-119.202;2022-09-20T07:59:31;97695.28;;;6.35
64175;BMP280;50469;50.438;-119.202;2022-09-20T08:01:59;97701.72;;;6.34
64175;BMP280;50469;50.438;-119.202;2022-09-20T08:04:27;97707.44;;;6.36
64175;BMP280;50469;50.438;-119.202;2022-09-20T08:06:55;97703.34;;;6.42
64175;BMP280;50469;50.438;-119.202;2022-09-20T08:09:25;97701.06;;;6.41
64175;BMP280;50469;50.438;-119.202;2022-09-20T08:11:56;97710.16;;;6.40
64175;BMP280;50469;50.438;-119.202;2022-09-20T08:14:24;97712.22;;;6.27
64175;BMP280;50469;50.438;-119.202;2022-09-20T08:16:55;97716.72;;;6.23
64175;BMP280;50469;50.438;-119.202;2022-09-20T08:19:23;97722.34;;;6.18
64175;BMP280;50469;50.438;-119.202;2022-09-20T08:21:51;97721.81;;;6.31
64175;BMP280;50469;50.438;-119.202;2022-09-20T08:24:22;97716.63;;;6.39
64175;BMP280;50469;50.438;-119.202;2022-09-20T08:26:50;97719.84;;;6.51
64175;BMP280;50469;50.438;-119.202;2022-09-20T08:29:21;97721.03;;;6.54
64175;BMP280;50469;50.438;-119.202;2022-09-20T08:31:49;97730.22;;;6.34
64175;BMP280;50469;50.438;-119.202;2022-09-20T08:34:17;97736.47;;;6.22
64175;BMP280;50469;50.438;-119.202;2022-09-20T08:36:46;97730.91;;;6.11
64175;BMP280;50469;50.438;-119.202;2022-09-20T08:39:17;97741.09;;;6.05
64175;BMP280;50469;50.438;-119.202;2022-09-20T08:42:31;97736.97;;;6.08
64175;BMP280;50469;50.438;-119.202;2022-09-20T08:45:15;97736.22;;;6.07
64175;BMP280;50469;50.438;-119.202;2022-09-20T08:48:03;97734.50;;;5.99
64175;BMP280;50469;50.438;-119.202;2022-09-20T08:50:38;97736.31;;;5.95
64175;BMP280;50469;50.438;-119.202;2022-09-20T08:53:11;97741.28;;;5.97
64175;BMP280;50469;50.438;-119.202;2022-09-20T08:55:49;97748.91;;;5.98
64175;BMP280;50469;50.438;-119.202;2022-09-20T08:58:17;97746.25;;;5.98
64175;BMP280;50469;50.438;-119.202;2022-09-20T09:00:46;97747.75;;;5.96
64175;BMP280;50469;50.438;-119.202;2022-09-20T09:03:16;97749.22;;;5.93
64175;BMP280;50469;50.438;-119.202;2022-09-20T09:05:55;97748.09;;;5.94
64175;BMP280;50469;50.438;-119.202;2022-09-20T09:08:34;97754.16;;;5.95
64175;BMP280;50469;50.438;-119.202;2022-09-20T09:11:15;97754.09;;;5.91
64175;BMP280;50469;50.438;-119.202;2022-09-20T09:16:16;97768.34;;;5.83
64175;BMP280;50469;50.438;-119.202;2022-09-20T09:18:52;97769.75;;;5.96
64175;BMP280;50469;50.438;-119.202;2022-09-20T09:26:41;97778.75;;;6.30
64175;BMP280;50469;50.438;-119.202;2022-09-20T09:29:18;97776.41;;;6.25
64175;BMP280;50469;50.438;-119.202;2022-09-20T09:31:51;97778.63;;;6.23
64175;BMP280;50469;50.438;-119.202;2022-09-20T09:34:27;97788.47;;;6.19
64175;BMP280;50469;50.438;-119.202;2022-09-20T09:36:57;97788.59;;;6.07
64175;BMP280;50469;50.438;-119.202;2022-09-20T09:39:33;97799.34;;;6.14
64175;BMP280;50469;50.438;-119.202;2022-09-20T09:42:19;97790.13;;;6.08
64175;BMP280;50469;50.438;-119.202;2022-09-20T09:44:47;97793.41;;;6.21
64175;BMP280;50469;50.438;-119.202;2022-09-20T09:47:25;97793.63;;;6.12
64175;BMP280;50469;50.438;-119.202;2022-09-20T09:49:57;97793.06;;;6.03
64175;BMP280;50469;50.438;-119.202;2022-09-20T09:52:32;97798.72;;;6.01
64175;BMP280;50469;50.438;-119.202;2022-09-20T09:55:02;97795.09;;;5.90
64175;BMP280;50469;50.438;-119.202;2022-09-20T10:00:34;97801.31;;;5.98
64175;BMP280;50469;50.438;-119.202;2022-09-20T10:03:24;97801.25;;;5.94
64175;BMP280;50469;50.438;-119.202;2022-09-20T10:06:16;97800.59;;;5.81
64175;BMP280;50469;50.438;-119.202;2022-09-20T10:14:32;97806.91;;;5.93
64175;BMP280;50469;50.438;-119.202;2022-09-20T10:17:32;97805.81;;;5.94
64175;BMP280;50469;50.438;-119.202;2022-09-20T10:23:26;97814.81;;;5.89
64175;BMP280;50469;50.438;-119.202;2022-09-20T10:31:52;97820.88;;;5.89
64175;BMP280;50469;50.438;-119.202;2022-09-20T10:37:25;97814.31;;;6.42
64175;BMP280;50469;50.438;-119.202;2022-09-20T10:40:14;97820.34;;;6.39
64175;BMP280;50469;50.438;-119.202;2022-09-20T10:42:50;97819.53;;;6.35
64175;BMP280;50469;50.438;-119.202;2022-09-20T10:45:37;97828.13;;;6.08
64175;BMP280;50469;50.438;-119.202;2022-09-20T10:48:41;97825.84;;;5.91
64175;BMP280;50469;50.438;-119.202;2022-09-20T11:01:39;97830.16;;;5.28
64175;BMP280;50469;50.438;-119.202;2022-09-20T11:07:16;97827.00;;;5.23
64175;BMP280;50469;50.438;-119.202;2022-09-20T11:09:58;97836.94;;;5.26
64175;BMP280;50469;50.438;-119.202;2022-09-20T11:12:37;97830.97;;;5.29
64175;BMP280;50469;50.438;-119.202;2022-09-20T11:20:38;97839.53;;;5.74
64175;BMP280;50469;50.438;-119.202;2022-09-20T11:26:04;97837.31;;;5.76
64175;BMP280;50469;50.438;-119.202;2022-09-20T11:28:43;97838.56;;;5.62
64175;BMP280;50469;50.438;-119.202;2022-09-20T11:31:24;97837.75;;;5.62
64175;BMP280;50469;50.438;-119.202;2022-09-20T11:36:36;97842.81;;;5.51
64175;BMP280;50469;50.438;-119.202;2022-09-20T11:39:21;97849.59;;;5.48
64175;BMP280;50469;50.438;-119.202;2022-09-20T11:41:52;97840.19;;;5.35
64175;BMP280;50469;50.438;-119.202;2022-09-20T11:44:24;97849.88;;;5.27
64175;BMP280;50469;50.438;-119.202;2022-09-20T11:46:57;97856.66;;;5.25
64175;BMP280;50469;50.438;-119.202;2022-09-20T11:55:34;97857.22;;;5.18
64175;BMP280;50469;50.438;-119.202;2022-09-20T11:58:08;97844.16;;;5.25
64175;BMP280;50469;50.438;-119.202;2022-09-20T12:00:40;97862.63;;;5.38
64175;BMP280;50469;50.438;-119.202;2022-09-20T12:03:39;97860.59;;;5.31
64175;BMP280;50469;50.438;-119.202;2022-09-20T12:09:02;97867.59;;;5.23
64175;BMP280;50469;50.438;-119.202;2022-09-20T12:11:35;97874.34;;;5.21
64175;BMP280;50469;50.438;-119.202;2022-09-20T12:14:21;97868.19;;;5.17
64175;BMP280;50469;50.438;-119.202;2022-09-20T12:16:53;97867.00;;;5.14
64175;BMP280;50469;50.438;-119.202;2022-09-20T12:24:31;97868.91;;;5.30
64175;BMP280;50469;50.438;-119.202;2022-09-20T12:27:54;97875.22;;;5.41
64175;BMP280;50469;50.438;-119.202;2022-09-20T12:30:05;97878.47;;;5.34
64175;BMP280;50469;50.438;-119.202;2022-09-20T12:32:49;97880.69;;;5.16
64175;BMP280;50469;50.438;-119.202;2022-09-20T12:43:49;97887.88;;;5.00
64175;BMP280;50469;50.438;-119.202;2022-09-20T12:46:41;97884.78;;;4.98
64175;BMP280;50469;50.438;-119.202;2022-09-20T12:54:58;97899.41;;;4.63
64175;BMP280;50469;50.438;-119.202;2022-09-20T12:57:33;97906.25;;;4.64
64175;BMP280;50469;50.438;-119.202;2022-09-20T13:00:07;97903.09;;;4.59
64175;BMP280;50469;50.438;-119.202;2022-09-20T13:05:41;97908.19;;;4.52
64175;BMP280;50469;50.438;-119.202;2022-09-20T13:08:17;97918.69;;;4.48
64175;BMP280;50469;50.438;-119.202;2022-09-20T13:10:52;97910.06;;;4.51
64175;BMP280;50469;50.438;-119.202;2022-09-20T13:13:30;97917.25;;;4.51
64175;BMP280;50469;50.438;-119.202;2022-09-20T13:16:03;97919.91;;;4.51
64175;BMP280;50469;50.438;-119.202;2022-09-20T13:18:37;97919.91;;;4.51
64175;BMP280;50469;50.438;-119.202;2022-09-20T13:21:07;97921.66;;;4.59
64175;BMP280;50469;50.438;-119.202;2022-09-20T13:23:45;97924.41;;;4.50
64175;BMP280;50469;50.438;-119.202;2022-09-20T13:26:14;97923.00;;;4.53
64175;BMP280;50469;50.438;-119.202;2022-09-20T13:28:49;97932.81;;;4.52
64175;BMP280;50469;50.438;-119.202;2022-09-20T13:33:50;97937.56;;;4.47
64175;BMP280;50469;50.438;-119.202;2022-09-20T13:36:25;97941.00;;;4.47
64175;BMP280;50469;50.438;-119.202;2022-09-20T13:38:55;97936.69;;;4.42
64175;BMP280;50469;50.438;-119.202;2022-09-20T13:41:26;97944.47;;;4.35
64175;BMP280;50469;50.438;-119.202;2022-09-20T13:43:58;97956.50;;;4.33
64175;BMP280;50469;50.438;-119.202;2022-09-20T13:46:31;97955.16;;;4.51
64175;BMP280;50469;50.438;-119.202;2022-09-20T13:51:40;97962.44;;;4.42
64175;BMP280;50469;50.438;-119.202;2022-09-20T13:54:29;97968.53;;;4.30
64175;BMP280;50469;50.438;-119.202;2022-09-20T13:57:05;97973.41;;;4.28
64175;BMP280;50469;50.438;-119.202;2022-09-20T13:59:43;97983.00;;;4.33
64175;BMP280;50469;50.438;-119.202;2022-09-20T14:02:41;97982.66;;;4.22
64175;BMP280;50469;50.438;-119.202;2022-09-20T14:05:16;97981.22;;;4.24
64175;BMP280;50469;50.438;-119.202;2022-09-20T14:07:49;97987.22;;;4.21
64175;BMP280;50469;50.438;-119.202;2022-09-20T14:12:54;97989.50;;;4.23
64175;BMP280;50469;50.438;-119.202;2022-09-20T14:15:24;97999.47;;;4.26
64175;BMP280;50469;50.438;-119.202;2022-09-20T14:17:53;98006.66;;;4.26
64175;BMP280;50469;50.438;-119.202;2022-09-20T14:20:21;98007.75;;;4.24
64175;BMP280;50469;50.438;-119.202;2022-09-20T14:22:49;98020.03;;;4.29
64175;BMP280;50469;50.438;-119.202;2022-09-20T14:25:26;98021.13;;;4.28
64175;BMP280;50469;50.438;-119.202;2022-09-20T14:28:05;98029.81;;;4.29
64175;BMP280;50469;50.438;-119.202;2022-09-20T14:30:35;98035.25;;;4.32
64175;BMP280;50469;50.438;-119.202;2022-09-20T14:33:06;98030.19;;;4.27
64175;BMP280;50469;50.438;-119.202;2022-09-20T14:35:46;98034.91;;;4.21
64175;BMP280;50469;50.438;-119.202;2022-09-20T14:38:14;98043.09;;;4.29
64175;BMP280;50469;50.438;-119.202;2022-09-20T14:40:46;98048.16;;;4.46
64175;BMP280;50469;50.438;-119.202;2022-09-20T14:43:34;98048.63;;;4.60
64175;BMP280;50469;50.438;-119.202;2022-09-20T14:46:17;98050.47;;;4.72
64175;BMP280;50469;50.438;-119.202;2022-09-20T14:48:45;98052.13;;;4.77
64175;BMP280;50469;50.438;-119.202;2022-09-20T14:53:46;98053.84;;;4.97
64175;BMP280;50469;50.438;-119.202;2022-09-20T14:56:24;98059.25;;;5.01
64175;BMP280;50469;50.438;-119.202;2022-09-20T15:01:44;98060.06;;;5.30
64175;BMP280;50469;50.438;-119.202;2022-09-20T15:04:23;98052.03;;;5.42
64175;BMP280;50469;50.438;-119.202;2022-09-20T15:06:54;98053.75;;;5.50
64175;BMP280;50469;50.438;-119.202;2022-09-20T15:09:26;98048.53;;;5.54
64175;BMP280;50469;50.438;-119.202;2022-09-20T15:12:05;98045.56;;;5.55
64175;BMP280;50469;50.438;-119.202;2022-09-20T15:14:33;98059.63;;;5.72
64175;BMP280;50469;50.438;-119.202;2022-09-20T15:17:04;98065.81;;;5.76
64175;BMP280;50469;50.438;-119.202;2022-09-20T15:19:35;98053.38;;;5.80
64175;BMP280;50469;50.438;-119.202;2022-09-20T15:22:04;98054.84;;;5.93
64175;BMP280;50469;50.438;-119.202;2022-09-20T15:24:32;98049.59;;;6.13
64175;BMP280;50469;50.438;-119.202;2022-09-20T15:27:03;98059.72;;;6.23
64175;BMP280;50469;50.438;-119.202;2022-09-20T15:29:34;98057.66;;;6.32
64175;BMP280;50469;50.438;-119.202;2022-09-20T15:32:02;98055.81;;;6.52
64175;BMP280;50469;50.438;-119.202;2022-09-20T15:34:31;98054.75;;;6.72
64175;BMP280;50469;50.438;-119.202;2022-09-20T15:36:59;98061.69;;;6.97
64175;BMP280;50469;50.438;-119.202;2022-09-20T15:39:27;98057.28;;;7.04
64175;BMP280;50469;50.438;-119.202;2022-09-20T15:41:55;98057.72;;;7.26
64175;BMP280;50469;50.438;-119.202;2022-09-20T15:44:23;98053.53;;;7.48
64175;BMP280;50469;50.438;-119.202;2022-09-20T15:46:54;98046.56;;;7.63
64175;BMP280;50469;50.438;-119.202;2022-09-20T15:49:24;98041.88;;;7.79
64175;BMP280;50469;50.438;-119.202;2022-09-20T15:51:52;98039.97;;;8.02
64175;BMP280;50469;50.438;-119.202;2022-09-20T15:54:20;98043.56;;;8.14
64175;BMP280;50469;50.438;-119.202;2022-09-20T15:56:49;98045.03;;;8.38
64175;BMP280;50469;50.438;-119.202;2022-09-20T15:59:17;98045.84;;;8.69
64175;BMP280;50469;50.438;-119.202;2022-09-20T16:01:47;98043.44;;;8.90
64175;BMP280;50469;50.438;-119.202;2022-09-20T16:04:17;98050.38;;;8.98
64175;BMP280;50469;50.438;-119.202;2022-09-20T16:06:49;98041.78;;;9.16
64175;BMP280;50469;50.438;-119.202;2022-09-20T16:09:18;98043.78;;;9.26
64175;BMP280;50469;50.438;-119.202;2022-09-20T16:11:47;98045.09;;;9.43
64175;BMP280;50469;50.438;-119.202;2022-09-20T16:14:15;98045.38;;;9.71
64175;BMP280;50469;50.438;-119.202;2022-09-20T16:16:46;98053.88;;;9.88
64175;BMP280;50469;50.438;-119.202;2022-09-20T16:19:14;98045.59;;;10.04
64175;BMP280;50469;50.438;-119.202;2022-09-20T16:21:44;98040.16;;;10.52
64175;BMP280;50469;50.438;-119.202;2022-09-20T16:24:15;98029.38;;;10.41
64175;BMP280;50469;50.438;-119.202;2022-09-20T16:26:43;98046.19;;;10.38
64175;BMP280;50469;50.438;-119.202;2022-09-20T16:29:11;98038.66;;;10.72
64175;BMP280;50469;50.438;-119.202;2022-09-20T16:31:47;98039.47;;;10.80
64175;BMP280;50469;50.438;-119.202;2022-09-20T16:34:23;98034.88;;;10.80
64175;BMP280;50469;50.438;-119.202;2022-09-20T16:36:53;98033.78;;;10.99
64175;BMP280;50469;50.438;-119.202;2022-09-20T16:39:22;98035.38;;;11.51
64175;BMP280;50469;50.438;-119.202;2022-09-20T16:41:56;98026.22;;;11.34
64175;BMP280;50469;50.438;-119.202;2022-09-20T16:44:30;98031.19;;;11.46
64175;BMP280;50469;50.438;-119.202;2022-09-20T16:46:58;98030.03;;;11.47
64175;BMP280;50469;50.438;-119.202;2022-09-20T16:49:27;98023.91;;;11.64
64175;BMP280;50469;50.438;-119.202;2022-09-20T16:51:58;98028.84;;;11.95
64175;BMP280;50469;50.438;-119.202;2022-09-20T16:54:26;98023.50;;;11.95
64175;BMP280;50469;50.438;-119.202;2022-09-20T16:56:58;98030.38;;;11.88
64175;BMP280;50469;50.438;-119.202;2022-09-20T16:59:28;98023.41;;;12.23
64175;BMP280;50469;50.438;-119.202;2022-09-20T17:01:56;98024.56;;;12.29
64175;BMP280;50469;50.438;-119.202;2022-09-20T17:04:24;98020.09;;;12.75
64175;BMP280;50469;50.438;-119.202;2022-09-20T17:06:55;98020.91;;;12.72
64175;BMP280;50469;50.438;-119.202;2022-09-20T17:09:26;98031.59;;;12.86
64175;BMP280;50469;50.438;-119.202;2022-09-20T17:11:56;98026.56;;;12.92
64175;BMP280;50469;50.438;-119.202;2022-09-20T17:14:24;98026.91;;;12.94
64175;BMP280;50469;50.438;-119.202;2022-09-20T17:16:52;98031.59;;;12.83
64175;BMP280;50469;50.438;-119.202;2022-09-20T17:19:20;98027.75;;;12.84
64175;BMP280;50469;50.438;-119.202;2022-09-20T17:21:51;98015.69;;;13.13
64175;BMP280;50469;50.438;-119.202;2022-09-20T17:24:22;98022.97;;;13.13
64175;BMP280;50469;50.438;-119.202;2022-09-20T17:26:53;98021.19;;;13.40
64175;BMP280;50469;50.438;-119.202;2022-09-20T17:29:21;98019.53;;;13.54
64175;BMP280;50469;50.438;-119.202;2022-09-20T17:31:50;98013.63;;;13.69
64175;BMP280;50469;50.438;-119.202;2022-09-20T17:34:25;98009.09;;;13.63
64175;BMP280;50469;50.438;-119.202;2022-09-20T17:36:53;98007.44;;;13.76
64175;BMP280;50469;50.438;-119.202;2022-09-20T17:39:22;98005.13;;;13.75
64175;BMP280;50469;50.438;-119.202;2022-09-20T17:41:53;98008.84;;;13.91
64175;BMP280;50469;50.438;-119.202;2022-09-20T17:44:21;98002.66;;;14.25
64175;BMP280;50469;50.438;-119.202;2022-09-20T17:46:50;97998.72;;;13.99
64175;BMP280;50469;50.438;-119.202;2022-09-20T17:49:20;97998.78;;;13.96
64175;BMP280;50469;50.438;-119.202;2022-09-20T17:51:50;97987.41;;;14.11
64175;BMP280;50469;50.438;-119.202;2022-09-20T17:54:19;97993.75;;;14.28
64175;BMP280;50469;50.438;-119.202;2022-09-20T17:56:49;97988.50;;;14.48
64175;BMP280;50469;50.438;-119.202;2022-09-20T17:59:20;97988.16;;;14.46
64175;BMP280;50469;50.438;-119.202;2022-09-20T18:01:49;97979.81;;;15.15
64175;BMP280;50469;50.438;-119.202;2022-09-20T18:04:18;97980.97;;;15.14
64175;BMP280;50469;50.438;-119.202;2022-09-20T18:06:51;97973.53;;;15.21
64175;BMP280;50469;50.438;-119.202;2022-09-20T18:09:24;97968.38;;;15.07
64175;BMP280;50469;50.438;-119.202;2022-09-20T18:11:56;97971.28;;;15.16
64175;BMP280;50469;50.438;-119.202;2022-09-20T18:14:26;97965.66;;;15.31
64175;BMP280;50469;50.438;-119.202;2022-09-20T18:16:56;97962.78;;;15.41
64175;BMP280;50469;50.438;-119.202;2022-09-20T18:19:25;97962.28;;;15.86
64175;BMP280;50469;50.438;-119.202;2022-09-20T18:21:53;97949.28;;;16.01
64175;BMP280;50469;50.438;-119.202;2022-09-20T18:24:24;97957.47;;;15.78
64175;BMP280;50469;50.438;-119.202;2022-09-20T18:26:52;97949.88;;;16.09
64175;BMP280;50469;50.438;-119.202;2022-09-20T18:29:23;97943.63;;;16.32
64175;BMP280;50469;50.438;-119.202;2022-09-20T18:31:52;97952.19;;;16.63
64175;BMP280;50469;50.438;-119.202;2022-09-20T18:34:22;97943.94;;;15.97
64175;BMP280;50469;50.438;-119.202;2022-09-20T18:36:55;97940.00;;;16.55
64175;BMP280;50469;50.438;-119.202;2022-09-20T18:39:25;97942.19;;;16.76
64175;BMP280;50469;50.438;-119.202;2022-09-20T18:41:56;97935.72;;;17.19
64175;BMP280;50469;50.438;-119.202;2022-09-20T18:44:27;97936.31;;;17.69
64175;BMP280;50469;50.438;-119.202;2022-09-20T18:46:55;97934.13;;;17.05
64175;BMP280;50469;50.438;-119.202;2022-09-20T18:49:23;97935.06;;;16.99
64175;BMP280;50469;50.438;-119.202;2022-09-20T18:51:51;97932.97;;;16.90
64175;BMP280;50469;50.438;-119.202;2022-09-20T18:54:19;97933.09;;;17.87
64175;BMP280;50469;50.438;-119.202;2022-09-20T18:56:51;97924.63;;;17.84
64175;BMP280;50469;50.438;-119.202;2022-09-20T18:59:21;97919.84;;;17.63
64175;BMP280;50469;50.438;-119.202;2022-09-20T19:10:20;97911.06;;;17.59
64175;BMP280;50469;50.438;-119.202;2022-09-20T19:26:33;97894.38;;;19.07
64175;BMP280;50469;50.438;-119.202;2022-09-20T19:29:01;97883.34;;;19.01
64175;BMP280;50469;50.438;-119.202;2022-09-20T19:31:32;97887.78;;;18.73
64175;BMP280;50469;50.438;-119.202;2022-09-20T19:34:05;97879.00;;;18.21
64175;BMP280;50469;50.438;-119.202;2022-09-20T19:47:44;97859.59;;;20.26
64175;BMP280;50469;50.438;-119.202;2022-09-20T19:52:46;97855.34;;;19.66
64175;BMP280;50469;50.438;-119.202;2022-09-20T19:55:15;97858.88;;;19.85